sensor_id;sensor_type;location;lat;lon;timestamp;pressure;altitude;pressure_sealevel;temperature;humidity
13476;BME280;6810;63.824;20.288;2022-08-02T00:00:56;100989.19;;;17.31;79.80
13476;BME280;6810;63.824;20.288;2022-08-02T00:03:23;100991.16;;;17.29;79.67
13476;BME280;6810;63.824;20.288;2022-08-02T00:05:51;100994.09;;;17.26;79.88
13476;BME280;6810;63.824;20.288;2022-08-02T00:08:20;100989.69;;;17.25;80.22
13476;BME280;6810;63.824;20.288;2022-08-02T00:10:48;100988.09;;;17.23;79.64
13476;BME280;6810;63.824;20.288;2022-08-02T00:13:16;100985.41;;;17.23;80.02
13476;BME280;6810;63.824;20.288;2022-08-02T00:15:43;100989.94;;;17.22;80.31
13476;BME280;6810;63.824;20.288;2022-08-02T00:18:10;100983.84;;;17.20;80.32
13476;BME280;6810;63.824;20.288;2022-08-02T00:20:37;100982.97;;;17.20;79.81
13476;BME280;6810;63.824;20.288;2022-08-02T00:23:04;100983.97;;;17.19;79.69
13476;BME280;6810;63.824;20.288;2022-08-02T00:25:31;100964.97;;;17.09;80.06
13476;BME280;6810;63.824;20.288;2022-08-02T00:27:58;100981.38;;;17.17;80.51
13476;BME280;6810;63.824;20.288;2022-08-02T00:30:25;100976.13;;;17.16;80.52
13476;BME280;6810;63.824;20.288;2022-08-02T00:32:52;100980.66;;;17.15;80.39
13476;BME280;6810;63.824;20.288;2022-08-02T00:35:19;100973.69;;;17.13;80.83
13476;BME280;6810;63.824;20.288;2022-08-02T00:37:46;100971.81;;;17.13;80.34
13476;BME280;6810;63.824;20.288;2022-08-02T00:40:13;100975.50;;;17.12;80.22
13476;BME280;6810;63.824;20.288;2022-08-02T00:42:40;100969.38;;;17.10;79.85
13476;BME280;6810;63.824;20.288;2022-08-02T00:45:07;100957.91;;;17.08;80.33
13476;BME280;6810;63.824;20.288;2022-08-02T00:47:35;100957.91;;;17.08;80.27
13476;BME280;6810;63.824;20.288;2022-08-02T00:50:02;100944.69;;;17.05;80.30
13476;BME280;6810;63.824;20.288;2022-08-02T00:52:29;100947.50;;;17.04;79.69
13476;BME280;6810;63.824;20.288;2022-08-02T00:54:56;100932.66;;;16.98;79.66
13476;BME280;6810;63.824;20.288;2022-08-02T00:57:23;100938.66;;;17.02;80.25
13476;BME280;6810;63.824;20.288;2022-08-02T00:59:50;100928.16;;;16.99;80.31
13476;BME280;6810;63.824;20.288;2022-08-02T01:02:17;100927.16;;;17.00;80.25
13476;BME280;6810;63.824;20.288;2022-08-02T01:04:44;100928.97;;;16.99;80.08
13476;BME280;6810;63.824;20.288;2022-08-02T01:07:11;100911.25;;;16.97;80.11
13476;BME280;6810;63.824;20.288;2022-08-02T01:09:41;100904.88;;;16.98;80.63
13476;BME280;6810;63.824;20.288;2022-08-02T01:12:09;100896.09;;;16.96;80.34
13476;BME280;6810;63.824;20.288;2022-08-02T01:14:38;100912.13;;;16.97;79.99
13476;BME280;6810;63.824;20.288;2022-08-02T01:17:11;100906.72;;;16.97;80.07
13476;BME280;6810;63.824;20.288;2022-08-02T01:25:49;100903.28;;;16.95;80.65
13476;BME280;6810;63.824;20.288;2022-08-02T01:28:42;100900.59;;;16.95;80.46
13476;BME280;6810;63.824;20.288;2022-08-02T01:31:18;100886.41;;;16.93;80.37
13476;BME280;6810;63.824;20.288;2022-08-02T01:33:54;100891.66;;;16.95;80.23
13476;BME280;6810;63.824;20.288;2022-08-02T01:36:25;100883.69;;;16.93;79.67
13476;BME280;6810;63.824;20.288;2022-08-02T01:38:55;100871.59;;;16.88;80.28
13476;BME280;6810;63.824;20.288;2022-08-02T01:41:24;100879.69;;;16.88;80.22
13476;BME280;6810;63.824;20.288;2022-08-02T01:43:56;100866.47;;;16.85;80.22
13476;BME280;6810;63.824;20.288;2022-08-02T01:46:25;100848.75;;;16.71;80.29
13476;BME280;6810;63.824;20.288;2022-08-02T01:48:55;100856.81;;;16.82;80.28
13476;BME280;6810;63.824;20.288;2022-08-02T01:51:25;100833.72;;;16.69;81.16
13476;BME280;6810;63.824;20.288;2022-08-02T01:54:14;100847.88;;;16.82;80.59
13476;BME280;6810;63.824;20.288;2022-08-02T01:56:44;100844.31;;;16.81;81.25
13476;BME280;6810;63.824;20.288;2022-08-02T01:59:15;100836.25;;;16.81;81.09
13476;BME280;6810;63.824;20.288;2022-08-02T02:01:47;100815.47;;;16.72;81.04
13476;BME280;6810;63.824;20.288;2022-08-02T02:04:16;100829.91;;;16.82;81.19
13476;BME280;6810;63.824;20.288;2022-08-02T02:06:44;100809.25;;;16.72;80.82
13476;BME280;6810;63.824;20.288;2022-08-02T02:09:13;100824.63;;;16.81;80.71
13476;BME280;6810;63.824;20.288;2022-08-02T02:11:46;100816.34;;;16.73;80.94
13476;BME280;6810;63.824;20.288;2022-08-02T02:14:35;100824.16;;;16.76;80.99
13476;BME280;6810;63.824;20.288;2022-08-02T02:17:03;100817.19;;;16.73;81.63
13476;BME280;6810;63.824;20.288;2022-08-02T02:19:33;100815.59;;;16.71;81.83
13476;BME280;6810;63.824;20.288;2022-08-02T02:22:02;100821.22;;;16.68;81.76
13476;BME280;6810;63.824;20.288;2022-08-02T02:24:30;100810.59;;;16.55;81.51
13476;BME280;6810;63.824;20.288;2022-08-02T02:26:58;100828.94;;;16.61;81.40
13476;BME280;6810;63.824;20.288;2022-08-02T02:29:29;100820.88;;;16.61;81.96
13476;BME280;6810;63.824;20.288;2022-08-02T02:31:58;100815.03;;;16.56;82.22
13476;BME280;6810;63.824;20.288;2022-08-02T02:34:32;100845.84;;;16.52;81.67
13476;BME280;6810;63.824;20.288;2022-08-02T02:37:05;100864.09;;;16.49;82.04
13476;BME280;6810;63.824;20.288;2022-08-02T02:39:34;100851.00;;;16.44;82.24
13476;BME280;6810;63.824;20.288;2022-08-02T02:42:07;100835.31;;;16.38;82.03
13476;BME280;6810;63.824;20.288;2022-08-02T02:44:38;100835.56;;;16.24;81.94
13476;BME280;6810;63.824;20.288;2022-08-02T02:47:06;100846.06;;;16.05;81.79
13476;BME280;6810;63.824;20.288;2022-08-02T02:49:35;100903.66;;;16.14;81.51
13476;BME280;6810;63.824;20.288;2022-08-02T02:52:04;100848.13;;;16.02;81.12
13476;BME280;6810;63.824;20.288;2022-08-02T02:54:33;100815.75;;;15.92;81.96
13476;BME280;6810;63.824;20.288;2022-08-02T02:57:03;100807.41;;;15.84;82.21
13476;BME280;6810;63.824;20.288;2022-08-02T02:59:35;100818.66;;;15.78;82.29
13476;BME280;6810;63.824;20.288;2022-08-02T03:02:16;100809.25;;;15.73;82.96
13476;BME280;6810;63.824;20.288;2022-08-02T03:04:45;100810.31;;;15.70;82.87
13476;BME280;6810;63.824;20.288;2022-08-02T03:07:24;100805.19;;;15.67;82.83
13476;BME280;6810;63.824;20.288;2022-08-02T03:09:51;100818.88;;;15.64;82.99
13476;BME280;6810;63.824;20.288;2022-08-02T03:12:22;100828.03;;;15.62;83.36
13476;BME280;6810;63.824;20.288;2022-08-02T03:14:58;100815.44;;;15.51;83.03
13476;BME280;6810;63.824;20.288;2022-08-02T03:17:39;100836.06;;;15.50;82.70
13476;BME280;6810;63.824;20.288;2022-08-02T03:20:09;100839.59;;;15.51;82.17
13476;BME280;6810;63.824;20.288;2022-08-02T03:22:36;100841.03;;;15.44;82.25
13476;BME280;6810;63.824;20.288;2022-08-02T03:25:04;100841.59;;;15.36;81.79
13476;BME280;6810;63.824;20.288;2022-08-02T03:27:31;100842.91;;;15.31;82.49
13476;BME280;6810;63.824;20.288;2022-08-02T03:29:58;100838.84;;;15.25;82.08
13476;BME280;6810;63.824;20.288;2022-08-02T03:32:25;100838.13;;;15.23;82.28
13476;BME280;6810;63.824;20.288;2022-08-02T03:34:52;100803.88;;;15.03;82.35
13476;BME280;6810;63.824;20.288;2022-08-02T03:37:20;100829.44;;;15.20;82.18
13476;BME280;6810;63.824;20.288;2022-08-02T03:39:48;100814.66;;;15.14;82.33
13476;BME280;6810;63.824;20.288;2022-08-02T03:42:20;100810.00;;;15.16;82.38
13476;BME280;6810;63.824;20.288;2022-08-02T03:44:48;100807.44;;;15.15;82.69
13476;BME280;6810;63.824;20.288;2022-08-02T03:47:16;100814.53;;;15.16;82.77
13476;BME280;6810;63.824;20.288;2022-08-02T03:49:44;100808.19;;;15.17;83.04
13476;BME280;6810;63.824;20.288;2022-08-02T03:52:12;100771.00;;;15.00;82.81
13476;BME280;6810;63.824;20.288;2022-08-02T03:54:40;100805.50;;;15.17;82.67
13476;BME280;6810;63.824;20.288;2022-08-02T03:57:12;100808.31;;;15.15;82.81
13476;BME280;6810;63.824;20.288;2022-08-02T03:59:40;100806.59;;;15.14;82.80
13476;BME280;6810;63.824;20.288;2022-08-02T04:02:08;100800.47;;;15.12;83.04
13476;BME280;6810;63.824;20.288;2022-08-02T04:04:36;100802.94;;;15.15;82.98
13476;BME280;6810;63.824;20.288;2022-08-02T04:07:03;100806.50;;;15.16;83.14
13476;BME280;6810;63.824;20.288;2022-08-02T04:09:33;100790.56;;;15.02;83.23
13476;BME280;6810;63.824;20.288;2022-08-02T04:12:00;100778.91;;;14.90;83.12
13476;BME280;6810;63.824;20.288;2022-08-02T04:14:27;100824.41;;;15.15;83.18
13476;BME280;6810;63.824;20.288;2022-08-02T04:16:58;100826.13;;;15.16;82.85
13476;BME280;6810;63.824;20.288;2022-08-02T04:19:37;100831.50;;;15.16;82.84
13476;BME280;6810;63.824;20.288;2022-08-02T04:22:07;100836.84;;;15.16;82.63
13476;BME280;6810;63.824;20.288;2022-08-02T04:24:38;100767.16;;;14.80;82.70
13476;BME280;6810;63.824;20.288;2022-08-02T04:27:09;100837.72;;;15.17;82.95
13476;BME280;6810;63.824;20.288;2022-08-02T04:29:56;100843.09;;;15.17;82.47
13476;BME280;6810;63.824;20.288;2022-08-02T04:32:24;100787.28;;;14.86;82.53
13476;BME280;6810;63.824;20.288;2022-08-02T04:34:51;100841.41;;;15.16;82.58
13476;BME280;6810;63.824;20.288;2022-08-02T04:37:39;100807.13;;;14.96;82.31
13476;BME280;6810;63.824;20.288;2022-08-02T04:40:26;100830.88;;;15.13;82.66
13476;BME280;6810;63.824;20.288;2022-08-02T04:42:54;100834.41;;;15.13;82.63
13476;BME280;6810;63.824;20.288;2022-08-02T04:45:21;100833.81;;;15.10;82.95
13476;BME280;6810;63.824;20.288;2022-08-02T04:47:49;100826.69;;;15.09;82.49
13476;BME280;6810;63.824;20.288;2022-08-02T04:50:29;100818.88;;;15.06;82.94
13476;BME280;6810;63.824;20.288;2022-08-02T04:52:57;100826.81;;;15.07;82.52
13476;BME280;6810;63.824;20.288;2022-08-02T04:55:24;100819.09;;;15.03;83.02
13476;BME280;6810;63.824;20.288;2022-08-02T04:57:55;100827.91;;;15.05;83.06
13476;BME280;6810;63.824;20.288;2022-08-02T05:00:25;100829.63;;;15.06;82.88
13476;BME280;6810;63.824;20.288;2022-08-02T05:02:54;100834.97;;;15.06;83.09
13476;BME280;6810;63.824;20.288;2022-08-02T05:05:22;100834.88;;;15.07;82.96
13476;BME280;6810;63.824;20.288;2022-08-02T05:07:49;100804.56;;;14.94;82.60
13476;BME280;6810;63.824;20.288;2022-08-02T05:10:16;100831.84;;;15.12;82.82
13476;BME280;6810;63.824;20.288;2022-08-02T05:12:43;100820.97;;;15.13;82.74
13476;BME280;6810;63.824;20.288;2022-08-02T05:15:11;100818.94;;;15.17;82.76
13476;BME280;6810;63.824;20.288;2022-08-02T05:17:39;100817.59;;;15.22;83.30
13476;BME280;6810;63.824;20.288;2022-08-02T05:20:18;100830.69;;;15.27;83.08
13476;BME280;6810;63.824;20.288;2022-08-02T05:22:45;100825.94;;;15.30;82.91
13476;BME280;6810;63.824;20.288;2022-08-02T05:25:13;100824.47;;;15.26;82.56
13476;BME280;6810;63.824;20.288;2022-08-02T05:27:40;100765.75;;;14.98;82.70
13476;BME280;6810;63.824;20.288;2022-08-02T05:30:08;100835.13;;;15.39;82.86
13476;BME280;6810;63.824;20.288;2022-08-02T05:32:49;100831.50;;;15.40;82.73
13476;BME280;6810;63.824;20.288;2022-08-02T05:35:19;100834.94;;;15.42;82.65
13476;BME280;6810;63.824;20.288;2022-08-02T05:37:48;100841.03;;;15.44;82.71
13476;BME280;6810;63.824;20.288;2022-08-02T05:40:16;100832.97;;;15.44;83.23
13476;BME280;6810;63.824;20.288;2022-08-02T05:42:52;100843.38;;;15.48;82.89
13476;BME280;6810;63.824;20.288;2022-08-02T05:45:19;100826.41;;;15.48;83.15
13476;BME280;6810;63.824;20.288;2022-08-02T05:47:47;100829.94;;;15.48;83.17
13476;BME280;6810;63.824;20.288;2022-08-02T05:50:37;100828.00;;;15.50;83.52
13476;BME280;6810;63.824;20.288;2022-08-02T05:53:49;100824.44;;;15.50;83.33
13476;BME280;6810;63.824;20.288;2022-08-02T05:57:00;100813.81;;;15.48;82.72
13476;BME280;6810;63.824;20.288;2022-08-02T06:00:07;100790.78;;;15.33;82.52
13476;BME280;6810;63.824;20.288;2022-08-02T06:06:10;100825.31;;;15.50;82.46
13476;BME280;6810;63.824;20.288;2022-08-02T06:09:17;100806.34;;;15.41;82.50
13476;BME280;6810;63.824;20.288;2022-08-02T06:12:06;100812.00;;;15.49;82.87
13476;BME280;6810;63.824;20.288;2022-08-02T06:14:57;100823.13;;;15.55;82.88
13476;BME280;6810;63.824;20.288;2022-08-02T06:17:45;100830.94;;;15.58;82.58
13476;BME280;6810;63.824;20.288;2022-08-02T06:20:33;100834.47;;;15.59;82.35
13476;BME280;6810;63.824;20.288;2022-08-02T06:23:22;100834.47;;;15.59;81.92
13476;BME280;6810;63.824;20.288;2022-08-02T06:26:25;100827.16;;;15.61;82.18
13476;BME280;6810;63.824;20.288;2022-08-02T06:29:13;100838.66;;;15.63;81.59
13476;BME280;6810;63.824;20.288;2022-08-02T06:32:04;100836.81;;;15.63;82.00
13476;BME280;6810;63.824;20.288;2022-08-02T06:34:52;100826.94;;;15.64;82.09
13476;BME280;6810;63.824;20.288;2022-08-02T06:37:57;100829.50;;;15.66;81.80
13476;BME280;6810;63.824;20.288;2022-08-02T06:40:50;100834.50;;;15.70;81.87
13476;BME280;6810;63.824;20.288;2022-08-02T06:45:54;100803.84;;;15.62;81.61
13476;BME280;6810;63.824;20.288;2022-08-02T06:49:02;100826.31;;;15.72;81.35
13476;BME280;6810;63.824;20.288;2022-08-02T06:52:09;100827.31;;;15.71;81.23
13476;BME280;6810;63.824;20.288;2022-08-02T06:54:58;100831.81;;;15.70;80.96
13476;BME280;6810;63.824;20.288;2022-08-02T06:57:27;100819.09;;;15.61;81.01
13476;BME280;6810;63.824;20.288;2022-08-02T07:00:14;100834.50;;;15.70;81.20
13476;BME280;6810;63.824;20.288;2022-08-02T07:02:43;100830.97;;;15.70;81.01
13476;BME280;6810;63.824;20.288;2022-08-02T07:05:30;100826.69;;;15.67;80.77
13476;BME280;6810;63.824;20.288;2022-08-02T07:08:18;100832.44;;;15.74;80.73
13476;BME280;6810;63.824;20.288;2022-08-02T07:11:06;100828.06;;;15.73;80.77
13476;BME280;6810;63.824;20.288;2022-08-02T07:13:53;100834.91;;;15.77;80.92
13476;BME280;6810;63.824;20.288;2022-08-02T07:16:40;100837.47;;;15.78;80.20
13476;BME280;6810;63.824;20.288;2022-08-02T07:19:27;100845.28;;;15.81;80.25
13476;BME280;6810;63.824;20.288;2022-08-02T07:22:15;100838.47;;;15.77;80.66
13476;BME280;6810;63.824;20.288;2022-08-02T07:25:02;100840.03;;;15.80;79.70
13476;BME280;6810;63.824;20.288;2022-08-02T07:27:49;100832.81;;;15.69;80.06
13476;BME280;6810;63.824;20.288;2022-08-02T07:30:49;100847.47;;;15.76;79.40
13476;BME280;6810;63.824;20.288;2022-08-02T07:33:36;100844.28;;;15.71;80.03
13476;BME280;6810;63.824;20.288;2022-08-02T07:36:23;100829.84;;;15.61;79.52
13476;BME280;6810;63.824;20.288;2022-08-02T07:39:13;100847.59;;;15.75;79.68
13476;BME280;6810;63.824;20.288;2022-08-02T07:42:01;100847.72;;;15.73;79.44
13476;BME280;6810;63.824;20.288;2022-08-02T07:44:49;100826.94;;;15.64;79.52
13476;BME280;6810;63.824;20.288;2022-08-02T07:47:37;100836.13;;;15.73;79.84
13476;BME280;6810;63.824;20.288;2022-08-02T07:50:24;100843.59;;;15.80;79.38
13476;BME280;6810;63.824;20.288;2022-08-02T07:53:11;100841.97;;;15.78;79.46
13476;BME280;6810;63.824;20.288;2022-08-02T07:56:18;100852.38;;;15.82;79.40
13476;BME280;6810;63.824;20.288;2022-08-02T07:59:05;100841.50;;;15.73;78.92
13476;BME280;6810;63.824;20.288;2022-08-02T08:01:52;100859.47;;;15.83;78.70
13476;BME280;6810;63.824;20.288;2022-08-02T08:04:40;100859.34;;;15.85;78.18
13476;BME280;6810;63.824;20.288;2022-08-02T08:07:27;100850.66;;;15.81;78.38
13476;BME280;6810;63.824;20.288;2022-08-02T08:09:54;100861.69;;;15.89;77.85
13476;BME280;6810;63.824;20.288;2022-08-02T08:12:22;100850.44;;;15.84;77.92
13476;BME280;6810;63.824;20.288;2022-08-02T08:14:49;100870.09;;;15.96;77.00
13476;BME280;6810;63.824;20.288;2022-08-02T08:17:16;100874.28;;;16.00;77.54
13476;BME280;6810;63.824;20.288;2022-08-02T08:19:43;100852.41;;;15.93;77.26
13476;BME280;6810;63.824;20.288;2022-08-02T08:22:19;100878.31;;;16.05;76.90
13476;BME280;6810;63.824;20.288;2022-08-02T08:24:46;100846.63;;;15.87;76.64
13476;BME280;6810;63.824;20.288;2022-08-02T08:27:18;100871.75;;;16.09;76.73
13476;BME280;6810;63.824;20.288;2022-08-02T08:30:05;100883.84;;;16.15;76.48
13476;BME280;6810;63.824;20.288;2022-08-02T08:32:53;100879.22;;;16.17;76.33
13476;BME280;6810;63.824;20.288;2022-08-02T08:35:39;100872.97;;;16.16;76.02
13476;BME280;6810;63.824;20.288;2022-08-02T08:38:28;100864.91;;;16.16;75.71
13476;BME280;6810;63.824;20.288;2022-08-02T08:41:16;100870.28;;;16.27;76.11
13476;BME280;6810;63.824;20.288;2022-08-02T08:44:04;100880.69;;;16.32;75.51
13476;BME280;6810;63.824;20.288;2022-08-02T08:46:51;100883.13;;;16.35;75.45
13476;BME280;6810;63.824;20.288;2022-08-02T08:49:40;100876.50;;;16.39;74.89
13476;BME280;6810;63.824;20.288;2022-08-02T08:52:35;100885.22;;;16.42;74.06
13476;BME280;6810;63.824;20.288;2022-08-02T08:55:26;100880.81;;;16.41;73.63
13476;BME280;6810;63.824;20.288;2022-08-02T08:58:14;100902.97;;;16.45;74.03
13476;BME280;6810;63.824;20.288;2022-08-02T09:01:02;100858.28;;;16.20;73.91
13476;BME280;6810;63.824;20.288;2022-08-02T09:03:49;100849.75;;;16.15;73.64
13476;BME280;6810;63.824;20.288;2022-08-02T09:06:40;100904.69;;;16.46;73.21
13476;BME280;6810;63.824;20.288;2022-08-02T09:09:27;100878.25;;;16.29;73.32
13476;BME280;6810;63.824;20.288;2022-08-02T09:12:18;100903.19;;;16.42;72.98
13476;BME280;6810;63.824;20.288;2022-08-02T09:15:05;100900.72;;;16.39;72.94
13476;BME280;6810;63.824;20.288;2022-08-02T09:17:52;100906.72;;;16.42;73.13
13476;BME280;6810;63.824;20.288;2022-08-02T09:20:55;100908.34;;;16.45;72.67
13476;BME280;6810;63.824;20.288;2022-08-02T09:23:47;100908.09;;;16.48;72.95
13476;BME280;6810;63.824;20.288;2022-08-02T09:26:35;100906.16;;;16.50;72.71
13476;BME280;6810;63.824;20.288;2022-08-02T09:29:23;100913.25;;;16.51;72.26
13476;BME280;6810;63.824;20.288;2022-08-02T09:32:39;100896.84;;;16.43;71.98
13476;BME280;6810;63.824;20.288;2022-08-02T09:35:36;100913.75;;;16.56;71.49
13476;BME280;6810;63.824;20.288;2022-08-02T09:38:35;100885.97;;;16.44;71.26
13476;BME280;6810;63.824;20.288;2022-08-02T09:41:24;100920.94;;;16.66;70.44
13476;BME280;6810;63.824;20.288;2022-08-02T09:44:13;100919.00;;;16.68;70.47
13476;BME280;6810;63.824;20.288;2022-08-02T09:47:13;100916.94;;;16.72;70.58
13476;BME280;6810;63.824;20.288;2022-08-02T09:50:24;100925.84;;;16.72;70.33
13476;BME280;6810;63.824;20.288;2022-08-02T09:53:12;100863.06;;;16.39;69.95
13476;BME280;6810;63.824;20.288;2022-08-02T09:56:02;100912.88;;;16.66;70.26
13476;BME280;6810;63.824;20.288;2022-08-02T09:59:05;100921.19;;;16.74;70.29
13476;BME280;6810;63.824;20.288;2022-08-02T10:01:54;100925.13;;;16.70;70.33
13476;BME280;6810;63.824;20.288;2022-08-02T10:04:43;100934.78;;;16.73;69.54
13476;BME280;6810;63.824;20.288;2022-08-02T10:07:30;100918.13;;;16.68;70.13
13476;BME280;6810;63.824;20.288;2022-08-02T10:10:20;100925.72;;;16.74;69.48
13476;BME280;6810;63.824;20.288;2022-08-02T10:13:09;100924.88;;;16.73;69.90
13476;BME280;6810;63.824;20.288;2022-08-02T10:15:56;100933.78;;;16.74;69.94
13476;BME280;6810;63.824;20.288;2022-08-02T10:18:44;100930.97;;;16.75;69.29
13476;BME280;6810;63.824;20.288;2022-08-02T10:21:36;100926.72;;;16.73;69.34
13476;BME280;6810;63.824;20.288;2022-08-02T10:24:30;100928.28;;;16.75;69.25
13476;BME280;6810;63.824;20.288;2022-08-02T10:27:19;100932.47;;;16.79;68.17
13476;BME280;6810;63.824;20.288;2022-08-02T10:30:26;100927.31;;;16.76;68.32
13476;BME280;6810;63.824;20.288;2022-08-02T10:33:16;100943.72;;;16.73;67.67
13476;BME280;6810;63.824;20.288;2022-08-02T10:36:05;100924.38;;;16.68;67.68
13476;BME280;6810;63.824;20.288;2022-08-02T10:38:54;100925.97;;;16.71;67.92
13476;BME280;6810;63.824;20.288;2022-08-02T10:41:52;100933.78;;;16.74;68.20
13476;BME280;6810;63.824;20.288;2022-08-02T10:44:40;100940.78;;;16.76;67.38
13476;BME280;6810;63.824;20.288;2022-08-02T10:47:28;100926.72;;;16.73;67.53
13476;BME280;6810;63.824;20.288;2022-08-02T10:50:19;100941.13;;;16.83;66.97
13476;BME280;6810;63.824;20.288;2022-08-02T10:53:28;100935.13;;;16.90;66.73
13476;BME280;6810;63.824;20.288;2022-08-02T10:56:15;100920.81;;;16.90;66.21
13476;BME280;6810;63.824;20.288;2022-08-02T10:59:23;100934.34;;;17.10;66.27
13476;BME280;6810;63.824;20.288;2022-08-02T11:02:11;100935.59;;;17.17;66.42
13476;BME280;6810;63.824;20.288;2022-08-02T11:07:47;100944.84;;;17.36;65.20
13476;BME280;6810;63.824;20.288;2022-08-02T11:10:36;100948.41;;;17.36;64.62
13476;BME280;6810;63.824;20.288;2022-08-02T11:13:23;100947.53;;;17.36;64.68
13476;BME280;6810;63.824;20.288;2022-08-02T11:16:10;100939.59;;;17.34;64.96
13476;BME280;6810;63.824;20.288;2022-08-02T11:24:51;100941.63;;;17.42;65.05
13476;BME280;6810;63.824;20.288;2022-08-02T11:27:39;100934.56;;;17.41;65.01
13476;BME280;6810;63.824;20.288;2022-08-02T11:30:27;100953.38;;;17.52;65.30
13476;BME280;6810;63.824;20.288;2022-08-02T11:33:14;100949.22;;;17.59;64.46
13476;BME280;6810;63.824;20.288;2022-08-02T11:36:04;100950.41;;;17.66;64.29
13476;BME280;6810;63.824;20.288;2022-08-02T11:39:07;100954.56;;;17.70;64.20
13476;BME280;6810;63.824;20.288;2022-08-02T11:41:56;100958.72;;;17.74;63.97
13476;BME280;6810;63.824;20.288;2022-08-02T11:44:44;100944.34;;;17.73;63.72
13476;BME280;6810;63.824;20.288;2022-08-02T11:47:31;100960.16;;;17.78;62.82
13476;BME280;6810;63.824;20.288;2022-08-02T11:50:21;100945.34;;;17.72;62.69
13476;BME280;6810;63.824;20.288;2022-08-02T11:53:12;100962.94;;;17.87;62.97
13476;BME280;6810;63.824;20.288;2022-08-02T11:55:59;100969.91;;;17.90;62.98
13476;BME280;6810;63.824;20.288;2022-08-02T11:59:08;100973.47;;;17.90;62.34
13476;BME280;6810;63.824;20.288;2022-08-02T12:01:55;100991.34;;;17.91;62.49
13476;BME280;6810;63.824;20.288;2022-08-02T12:04:22;100971.63;;;17.91;62.38
13476;BME280;6810;63.824;20.288;2022-08-02T12:06:56;100982.78;;;17.97;62.23
13476;BME280;6810;63.824;20.288;2022-08-02T12:09:26;100979.81;;;18.00;61.73
13476;BME280;6810;63.824;20.288;2022-08-02T12:11:55;100977.81;;;18.02;61.38
13476;BME280;6810;63.824;20.288;2022-08-02T12:14:25;100953.16;;;17.86;61.25
13476;BME280;6810;63.824;20.288;2022-08-02T12:16:53;100982.81;;;18.07;61.04
13476;BME280;6810;63.824;20.288;2022-08-02T12:19:39;100982.56;;;18.10;61.54
13476;BME280;6810;63.824;20.288;2022-08-02T12:22:09;100994.81;;;18.14;61.07
13476;BME280;6810;63.824;20.288;2022-08-02T12:24:38;100984.47;;;18.19;61.40
13476;BME280;6810;63.824;20.288;2022-08-02T12:27:06;100987.31;;;18.17;60.51
13476;BME280;6810;63.824;20.288;2022-08-02T12:29:38;100958.66;;;18.05;60.87
13476;BME280;6810;63.824;20.288;2022-08-02T12:32:25;100980.97;;;18.28;60.26
13476;BME280;6810;63.824;20.288;2022-08-02T12:35:17;100947.09;;;18.14;59.82
13476;BME280;6810;63.824;20.288;2022-08-02T12:38:11;100950.84;;;18.23;59.66
13476;BME280;6810;63.824;20.288;2022-08-02T12:41:11;100985.13;;;18.43;60.12
13476;BME280;6810;63.824;20.288;2022-08-02T12:43:59;100984.72;;;18.47;59.31
13476;BME280;6810;63.824;20.288;2022-08-02T12:46:57;100985.41;;;18.49;58.85
13476;BME280;6810;63.824;20.288;2022-08-02T12:50:10;100982.59;;;18.51;58.56
13476;BME280;6810;63.824;20.288;2022-08-02T12:53:08;100987.84;;;18.52;58.49
13476;BME280;6810;63.824;20.288;2022-08-02T12:55:57;100954.09;;;18.37;57.87
13476;BME280;6810;63.824;20.288;2022-08-02T12:58:49;100979.22;;;18.58;57.73
13476;BME280;6810;63.824;20.288;2022-08-02T13:01:36;100985.22;;;18.62;57.36
13476;BME280;6810;63.824;20.288;2022-08-02T13:04:23;100976.13;;;18.63;57.43
13476;BME280;6810;63.824;20.288;2022-08-02T13:07:25;100971.56;;;18.63;57.58
13476;BME280;6810;63.824;20.288;2022-08-02T13:10:12;100972.97;;;18.58;56.93
13476;BME280;6810;63.824;20.288;2022-08-02T13:13:00;100970.88;;;18.61;56.91
13476;BME280;6810;63.824;20.288;2022-08-02T13:15:52;100976.28;;;18.61;57.04
13476;BME280;6810;63.824;20.288;2022-08-02T13:18:39;100922.78;;;18.35;56.58
13476;BME280;6810;63.824;20.288;2022-08-02T13:21:27;100938.09;;;18.45;55.83
13476;BME280;6810;63.824;20.288;2022-08-02T13:24:34;100970.59;;;18.64;56.32
13476;BME280;6810;63.824;20.288;2022-08-02T13:27:26;100955.09;;;18.66;55.49
13476;BME280;6810;63.824;20.288;2022-08-02T13:29:58;100967.50;;;18.69;55.25
13476;BME280;6810;63.824;20.288;2022-08-02T13:32:46;100950.56;;;18.67;55.50
13476;BME280;6810;63.824;20.288;2022-08-02T13:35:33;100961.81;;;18.72;55.75
13476;BME280;6810;63.824;20.288;2022-08-02T13:38:20;100963.38;;;18.74;55.73
13476;BME280;6810;63.824;20.288;2022-08-02T13:41:07;100950.03;;;18.73;55.58
13476;BME280;6810;63.824;20.288;2022-08-02T13:43:54;100957.91;;;18.85;55.34
13476;BME280;6810;63.824;20.288;2022-08-02T13:46:41;100958.47;;;18.89;55.01
13476;BME280;6810;63.824;20.288;2022-08-02T13:49:28;100956.50;;;18.91;54.62
13476;BME280;6810;63.824;20.288;2022-08-02T13:52:19;100968.44;;;18.88;53.74
13476;BME280;6810;63.824;20.288;2022-08-02T13:55:06;100953.88;;;18.80;53.97
13476;BME280;6810;63.824;20.288;2022-08-02T13:57:54;100959.16;;;18.81;53.99
13476;BME280;6810;63.824;20.288;2022-08-02T14:00:41;100966.16;;;18.84;53.53
13476;BME280;6810;63.824;20.288;2022-08-02T14:03:29;100956.31;;;18.83;53.56
13476;BME280;6810;63.824;20.288;2022-08-02T14:06:34;100958.16;;;18.82;53.64
13476;BME280;6810;63.824;20.288;2022-08-02T14:09:25;100957.31;;;18.82;53.47
13476;BME280;6810;63.824;20.288;2022-08-02T14:12:12;100956.16;;;18.84;53.34
13476;BME280;6810;63.824;20.288;2022-08-02T14:14:59;100945.78;;;18.80;53.68
13476;BME280;6810;63.824;20.288;2022-08-02T14:17:46;100951.03;;;18.81;53.03
13476;BME280;6810;63.824;20.288;2022-08-02T14:20:33;100952.91;;;18.81;52.81